Aérodrome :
LOGIN :

S'inscrire | Disclaimer

   EN    FR    IT 

 










Légende :    VFR   VFR Marginal   IFR   IFR Intensif   IFR Très Intensif
Visi : 
Plafond : 
>= 8 km
>= 3000ft
5 à 8 km
1000 à 3000 ft
1500m à 5 km
500 à 1000 ft
800 à 1500m
200 à 500 ft
< 800m
< 200 ft
Symboles :   Orages  Brouillard  Fortes neiges  Fortes précipitations  Vent > 20 kt
SIGMETs :   Divers  Orages  Givrage  Turbulence  Onde Orograph.  Cendres Volcan.







- Altitude de l'aérodrome : 183 ft
- Code IATA : HAJ


EDDV - Hanover/Langenhagen Int.

DERNIER METAR :
  • 181720Z 29012KT 250V310 9999 -RA BKN015 03/01 Q0997 TEMPO BKN012

METARs EXPIRÉS :
  • 181650Z 29020KT 9999 BKN019 BKN027 03/00 Q0996 TEMPO BKN012
  • 181620Z 30021KT 9999 -RA FEW011 BKN018 03/01 Q0995 TEMPO BKN012
  • 181550Z 30023G35KT 9999 BKN018 03/00 Q0994 TEMPO BKN012
  • 181520Z 29029G41KT 9999 -RA BKN020 03/00 Q0992 TEMPO 29045G55KT BKN012
  • 181450Z 29033G46KT 9999 -RA BKN018 03/M00 Q0989 TEMPO 29045G55KT BKN012

TAF TAF EDDV
Valide du 18 à 18h jusqu'au 19 à 18h UTC


181700Z 1818/1918 30015G25KT 9999 SCT015 BKN020
BECMG 1818/1820 26013KT
TEMPO 1818/1821 4500 -SHRASN BKN012CB
BECMG 1820/1822 25008KT
PROB30
TEMPO 1821/1910 BKN012
PROB30
TEMPO 1913/1918 4000 SHRASN BKN012CB
Pas de NOTAMs connus pour ce terrain.
1 SIGMET publié pour la FIR Bremen (EDWW) :
 
Turbulence forte
EDWW SIGMET 9 VALID 181700/181900 EDZH
EDWW BREMEN FIR SEV TURB FCST WI N5308 E01120 - N5231 E01439 - N5138 E01456 - N5116 E01348 - N5138 E01207 - N5153 E01124 - N5308 E01120 SFC/FL060 MOV E WKN=



MET'MAP, la Météo Aéronautique d'un coup d'oeil ! - Copyright ORBIFLY Décembre 2007 - Disclaimer

ORBIFLY MET'MAP TEAM :

Programmation & Développement : Alexandra Zaïnal
Conception & Développement : Baudouin d'Aumeries
Co-Programmation & Développement : Marc-Olivier Méhu
Soutien technique & logistique : Manuel Goepfert

Contact : metmap@orbifly.com




SOURCES & CREDITS :

   NOAA